createdAt,value
2018-04-29T00:00:53.132Z,64.40
2018-04-29T00:03:21.172Z,64.40
2018-04-29T00:05:49.221Z,64.50
2018-04-29T00:08:18.062Z,65.00
2018-04-29T00:10:46.359Z,64.70
2018-04-29T00:13:15.840Z,64.40
2018-04-29T00:15:43.887Z,64.60
2018-04-29T00:18:11.964Z,65.10
2018-04-29T00:20:39.992Z,65.50
2018-04-29T00:23:08.444Z,65.60
2018-04-29T00:25:36.492Z,65.60
2018-04-29T00:28:04.532Z,65.60
2018-04-29T00:30:32.576Z,66.10
2018-04-29T00:33:00.627Z,65.90
2018-04-29T00:35:28.699Z,66.00
2018-04-29T00:37:56.749Z,66.30
2018-04-29T00:40:24.820Z,66.30
2018-04-29T00:42:52.856Z,66.20
2018-04-29T00:45:21.677Z,66.20
2018-04-29T00:47:49.707Z,66.10
2018-04-29T00:50:18.512Z,66.30
2018-04-29T00:52:46.568Z,66.30
2018-04-29T00:55:15.386Z,66.60
2018-04-29T00:57:44.204Z,67.00
2018-04-29T01:00:12.258Z,66.90
2018-04-29T01:02:40.418Z,67.40
2018-04-29T01:05:08.457Z,67.30
2018-04-29T01:07:37.275Z,67.90
2018-04-29T01:10:05.327Z,67.90
2018-04-29T01:12:33.544Z,68.00
2018-04-29T01:15:01.680Z,68.20
2018-04-29T01:17:29.648Z,68.10
2018-04-29T01:19:57.720Z,67.60
2018-04-29T01:22:25.768Z,67.90
2018-04-29T01:24:54.599Z,68.40
2018-04-29T01:27:22.648Z,68.20
2018-04-29T01:29:50.701Z,68.30
2018-04-29T01:32:18.752Z,67.80
2018-04-29T01:34:46.800Z,68.10
2018-04-29T01:37:14.852Z,68.20
2018-04-29T01:39:42.906Z,68.60
2018-04-29T01:42:10.941Z,68.60
2018-04-29T01:44:38.991Z,68.90
2018-04-29T01:47:07.048Z,69.10
2018-04-29T01:49:35.098Z,68.90
2018-04-29T01:52:03.162Z,67.80
2018-04-29T01:54:31.239Z,67.60
2018-04-29T01:56:59.296Z,67.90
2018-04-29T01:59:28.132Z,68.60
2018-04-29T02:01:56.192Z,68.50
2018-04-29T02:04:24.243Z,69.10
2018-04-29T02:06:52.279Z,69.80
2018-04-29T02:09:21.098Z,70.80
2018-04-29T02:11:49.331Z,70.80
2018-04-29T02:14:17.372Z,71.40
2018-04-29T02:16:45.419Z,71.30
2018-04-29T02:19:13.468Z,72.20
2018-04-29T02:21:41.534Z,71.60
2018-04-29T02:24:10.344Z,71.50
2018-04-29T02:26:38.403Z,71.40
2018-04-29T02:29:06.472Z,70.80
2018-04-29T02:31:35.271Z,70.90
2018-04-29T02:34:03.323Z,70.90
2018-04-29T02:36:32.258Z,69.70
2018-04-29T02:39:00.309Z,69.60
2018-04-29T02:41:28.367Z,69.40
2018-04-29T02:43:56.426Z,69.10
2018-04-29T02:46:25.228Z,68.60
2018-04-29T02:48:53.288Z,68.60
2018-04-29T02:51:21.349Z,68.70
2018-04-29T02:53:50.170Z,69.40
2018-04-29T02:56:18.245Z,69.40
2018-04-29T02:58:46.299Z,69.10
2018-04-29T03:01:14.364Z,68.90
2018-04-29T03:03:43.176Z,68.50
2018-04-29T03:06:11.233Z,68.40
2018-04-29T03:08:39.292Z,68.60
2018-04-29T03:11:08.115Z,69.80
2018-04-29T03:13:36.185Z,69.80
2018-04-29T03:16:04.228Z,70.10
2018-04-29T03:18:32.269Z,70.00
2018-04-29T03:21:00.325Z,69.30
2018-04-29T03:23:28.368Z,69.40
2018-04-29T03:25:56.457Z,69.20
2018-04-29T03:28:24.505Z,69.30
2018-04-29T03:30:52.570Z,69.60
2018-04-29T03:33:20.624Z,69.80
2018-04-29T03:35:48.670Z,69.50
2018-04-29T03:38:16.728Z,69.60
2018-04-29T03:40:44.785Z,70.20
2018-04-29T03:43:12.844Z,70.00
2018-04-29T03:45:40.899Z,70.60
2018-04-29T03:48:09.029Z,70.50
2018-04-29T03:50:37.056Z,70.90
2018-04-29T03:53:05.147Z,71.10
2018-04-29T03:55:33.167Z,70.70
2018-04-29T03:58:12.901Z,71.10
2018-04-29T04:00:53.656Z,71.50
2018-04-29T04:03:33.637Z,71.50
2018-04-29T04:06:01.717Z,71.60
2018-04-29T04:08:29.755Z,71.70
2018-04-29T04:10:58.567Z,72.30
2018-04-29T04:13:26.615Z,72.10
2018-04-29T04:15:54.663Z,72.80
2018-04-29T04:18:23.304Z,72.70
2018-04-29T04:20:51.340Z,73.00
2018-04-29T04:23:19.371Z,73.00
2018-04-29T04:25:47.429Z,72.80
2018-04-29T04:28:15.462Z,72.90
2018-04-29T04:30:43.517Z,71.90
2018-04-29T04:33:12.661Z,71.20
2018-04-29T04:35:40.710Z,71.20
2018-04-29T04:38:08.751Z,71.30
2018-04-29T04:40:37.570Z,71.20
2018-04-29T04:43:05.608Z,71.20
2018-04-29T04:45:34.429Z,70.50
2018-04-29T04:48:02.480Z,70.40
2018-04-29T04:50:31.295Z,70.60
2018-04-29T04:52:59.356Z,70.60
2018-04-29T04:55:27.403Z,70.70
2018-04-29T04:57:56.225Z,71.30
2018-04-29T05:00:24.272Z,71.30
2018-04-29T05:02:53.102Z,71.20
2018-04-29T05:05:21.144Z,71.20
2018-04-29T05:07:49.338Z,71.70
2018-04-29T05:10:17.389Z,71.00
2018-04-29T05:12:45.432Z,70.50
2018-04-29T05:15:13.473Z,70.10
2018-04-29T05:17:41.529Z,69.30
2018-04-29T05:20:09.575Z,69.00
2018-04-29T05:22:37.615Z,69.20
2018-04-29T05:25:06.437Z,68.90
2018-04-29T05:27:34.494Z,68.90
2018-04-29T05:30:02.561Z,69.40
2018-04-29T05:32:31.367Z,68.00
2018-04-29T05:34:59.416Z,68.00
2018-04-29T05:37:27.471Z,67.10
2018-04-29T05:39:55.556Z,67.00
2018-04-29T05:42:23.605Z,67.20
2018-04-29T05:44:51.675Z,67.30
2018-04-29T05:47:19.721Z,67.80
2018-04-29T05:49:47.810Z,68.00
2018-04-29T05:52:15.813Z,68.00
2018-04-29T05:54:43.869Z,67.90
2018-04-29T05:57:12.671Z,67.90
2018-04-29T05:59:40.719Z,67.90
2018-04-29T06:02:08.776Z,68.10
2018-04-29T06:04:36.827Z,68.10
2018-04-29T06:07:04.873Z,68.20
2018-04-29T06:09:33.832Z,68.20
2018-04-29T06:12:02.688Z,68.60
2018-04-29T06:14:30.723Z,68.50
2018-04-29T06:16:58.783Z,68.70
2018-04-29T06:19:26.820Z,68.90
2018-04-29T06:21:54.873Z,68.90
2018-04-29T06:24:22.920Z,69.10
2018-04-29T06:26:50.960Z,69.10
2018-04-29T06:29:19.004Z,69.20
2018-04-29T06:31:47.056Z,69.10
2018-04-29T06:34:15.099Z,68.80
2018-04-29T06:36:43.155Z,68.40
2018-04-29T06:39:11.189Z,68.00
2018-04-29T06:41:39.248Z,67.70
2018-04-29T06:44:07.328Z,67.50
2018-04-29T06:46:35.376Z,68.00
2018-04-29T06:49:03.415Z,68.10
2018-04-29T06:51:31.464Z,67.60
2018-04-29T06:53:59.500Z,68.30
2018-04-29T06:56:27.572Z,68.90
2018-04-29T06:58:55.608Z,69.60
2018-04-29T07:01:24.427Z,68.00
2018-04-29T07:03:52.472Z,68.00
2018-04-29T07:06:20.528Z,67.50
2018-04-29T07:08:48.573Z,67.40
2018-04-29T07:11:16.636Z,67.70
2018-04-29T07:13:45.462Z,67.10
2018-04-29T07:16:13.521Z,67.10
2018-04-29T07:18:41.553Z,67.10
2018-04-29T07:21:09.612Z,67.20
2018-04-29T07:23:37.649Z,67.10
2018-04-29T07:26:05.753Z,66.70
2018-04-29T07:28:33.756Z,66.40
2018-04-29T07:31:02.564Z,66.10
2018-04-29T07:33:30.712Z,66.00
2018-04-29T07:35:59.529Z,66.40
2018-04-29T07:38:27.604Z,66.40
2018-04-29T07:40:55.647Z,66.50
2018-04-29T07:43:24.462Z,66.00
2018-04-29T07:45:52.504Z,65.90
2018-04-29T07:48:20.567Z,65.50
2018-04-29T07:50:49.379Z,65.60
2018-04-29T07:53:17.427Z,65.50
2018-04-29T07:55:46.246Z,64.90
2018-04-29T07:58:14.292Z,64.70
2018-04-29T08:00:43.168Z,63.70
2018-04-29T08:03:11.940Z,64.20
2018-04-29T08:05:40.018Z,63.80
2018-04-29T08:08:08.046Z,63.90
2018-04-29T08:10:36.123Z,62.60
2018-04-29T08:13:04.173Z,63.50
2018-04-29T08:15:32.327Z,63.10
2018-04-29T08:18:00.280Z,62.70
2018-04-29T08:20:29.088Z,62.20
2018-04-29T08:22:57.921Z,62.70
2018-04-29T08:25:25.957Z,62.70
2018-04-29T08:27:54.004Z,62.10
2018-04-29T08:30:22.821Z,60.40
2018-04-29T08:32:50.871Z,60.40
2018-04-29T08:35:18.940Z,61.00
2018-04-29T08:37:47.768Z,60.60
2018-04-29T08:40:15.812Z,60.60
2018-04-29T08:42:43.868Z,60.10
2018-04-29T08:45:12.680Z,60.00
2018-04-29T08:47:40.724Z,59.90
2018-04-29T08:50:09.542Z,59.60
2018-04-29T08:52:37.603Z,59.60
2018-04-29T08:55:05.635Z,59.10
2018-04-29T08:57:33.679Z,59.10
2018-04-29T09:00:01.723Z,58.50
2018-04-29T09:02:29.938Z,58.30
2018-04-29T09:04:58.810Z,58.00
2018-04-29T09:07:26.867Z,58.00
2018-04-29T09:09:54.914Z,57.70
2018-04-29T09:12:23.736Z,56.50
2018-04-29T09:14:51.852Z,56.50
2018-04-29T09:17:19.891Z,56.40
2018-04-29T09:19:48.089Z,56.60
2018-04-29T09:22:16.167Z,56.10
2018-04-29T09:24:44.235Z,56.30
2018-04-29T09:27:12.325Z,56.10
2018-04-29T09:29:41.169Z,46.40
2018-04-29T09:32:09.349Z,46.20
2018-04-29T09:34:37.401Z,39.10
2018-04-29T09:37:05.517Z,33.00
2018-04-29T09:39:33.500Z,29.40
2018-04-29T09:42:02.300Z,24.40
2018-04-29T09:44:30.353Z,24.20
2018-04-29T09:46:59.156Z,21.50
2018-04-29T09:49:27.212Z,21.50
2018-04-29T09:51:55.254Z,21.20
2018-04-29T09:54:23.316Z,21.00
2018-04-29T09:56:51.364Z,20.40
2018-04-29T09:59:19.426Z,20.30
2018-04-29T10:01:57.376Z,19.60
2018-04-29T10:04:25.432Z,20.40
2018-04-29T10:06:53.466Z,21.20
2018-04-29T10:09:21.521Z,21.70
2018-04-29T10:11:49.709Z,22.50
2018-04-29T10:14:17.733Z,24.00
2018-04-29T10:16:45.784Z,25.10
2018-04-29T10:19:13.849Z,25.30
2018-04-29T10:21:41.896Z,27.50
2018-04-29T10:24:09.965Z,28.50
2018-04-29T10:26:38.004Z,29.00
2018-04-29T10:29:06.827Z,30.00
2018-04-29T10:31:34.880Z,30.00
2018-04-29T10:34:02.933Z,30.00
2018-04-29T10:36:30.963Z,31.70
2018-04-29T10:38:59.036Z,33.20
2018-04-29T10:41:28.117Z,33.70
2018-04-29T10:43:56.188Z,34.20
2018-04-29T10:46:24.239Z,34.90
2018-04-29T10:48:52.296Z,35.20
2018-04-29T10:51:20.333Z,35.40
2018-04-29T10:53:48.385Z,36.30
2018-04-29T10:56:16.438Z,35.80
2018-04-29T10:58:44.607Z,36.50
2018-04-29T11:01:12.573Z,36.90
2018-04-29T11:03:40.681Z,36.30
2018-04-29T11:06:08.689Z,36.00
2018-04-29T11:08:37.516Z,35.70
2018-04-29T11:11:05.604Z,35.70
2018-04-29T11:13:33.648Z,35.20
2018-04-29T11:16:01.700Z,35.70
2018-04-29T11:18:29.756Z,36.50
2018-04-29T11:20:58.580Z,36.50
2018-04-29T11:23:26.613Z,36.50
2018-04-29T11:25:54.680Z,37.00
2018-04-29T11:28:22.728Z,37.10
2018-04-29T11:30:50.800Z,36.60
2018-04-29T11:33:18.840Z,35.40
2018-04-29T11:35:46.955Z,35.70
2018-04-29T11:38:14.992Z,36.00
2018-04-29T11:40:43.107Z,35.60
2018-04-29T11:43:11.092Z,35.70
2018-04-29T11:45:39.140Z,34.90
2018-04-29T11:48:07.197Z,35.10
2018-04-29T11:50:35.253Z,34.10
2018-04-29T11:53:03.303Z,34.00
2018-04-29T11:55:31.370Z,33.40
2018-04-29T11:57:59.408Z,34.00
2018-04-29T12:00:28.236Z,34.50
2018-04-29T12:02:56.288Z,34.40
2018-04-29T12:05:24.358Z,35.60
2018-04-29T12:07:52.420Z,35.20
2018-04-29T12:10:20.472Z,35.10
2018-04-29T12:12:48.508Z,34.10
2018-04-29T12:15:16.580Z,33.50
2018-04-29T12:17:44.652Z,33.70
2018-04-29T12:20:12.738Z,33.90
2018-04-29T12:22:40.764Z,33.50
2018-04-29T12:25:08.816Z,32.40
2018-04-29T12:27:36.881Z,31.90
2018-04-29T12:30:05.748Z,31.40
2018-04-29T12:32:33.804Z,31.40
2018-04-29T12:35:01.876Z,32.60
2018-04-29T12:37:31.917Z,33.10
2018-04-29T12:40:00.764Z,32.80
2018-04-29T12:42:28.819Z,32.80
2018-04-29T12:44:56.884Z,33.60
2018-04-29T12:47:24.943Z,33.30
2018-04-29T12:49:53.004Z,32.70
2018-04-29T12:52:21.177Z,33.40
2018-04-29T12:54:49.160Z,32.80
2018-04-29T12:57:17.240Z,33.10
2018-04-29T12:59:45.304Z,33.50
2018-04-29T13:02:13.386Z,33.30
2018-04-29T13:04:41.506Z,33.50
2018-04-29T13:07:09.568Z,33.30
2018-04-29T13:09:37.608Z,32.00
2018-04-29T13:12:05.665Z,31.50
2018-04-29T13:14:33.716Z,30.30
2018-04-29T13:17:01.795Z,30.20
2018-04-29T13:19:29.848Z,30.80
2018-04-29T13:21:59.412Z,33.00
2018-04-29T13:24:27.559Z,33.00
2018-04-29T13:26:55.667Z,32.70
2018-04-29T13:29:24.052Z,32.70
2018-04-29T13:31:52.220Z,31.70
2018-04-29T13:34:20.376Z,31.40
2018-04-29T13:36:48.952Z,30.50
2018-04-29T13:39:17.078Z,30.60
2018-04-29T13:41:46.105Z,31.40
2018-04-29T13:44:14.214Z,31.30
2018-04-29T13:46:42.388Z,30.60
2018-04-29T13:49:10.511Z,30.00
2018-04-29T13:51:38.620Z,29.30
2018-04-29T13:54:06.682Z,28.30
2018-04-29T13:56:34.861Z,28.30
2018-04-29T13:59:02.963Z,28.40
2018-04-29T14:01:31.115Z,27.90
2018-04-29T14:03:59.407Z,28.20
2018-04-29T14:06:27.486Z,28.10
2018-04-29T14:08:56.347Z,28.40
2018-04-29T14:11:24.465Z,28.30
2018-04-29T14:13:53.325Z,29.60
2018-04-29T14:16:21.399Z,29.60
2018-04-29T14:18:49.532Z,29.80
2018-04-29T14:21:17.593Z,30.30
2018-04-29T14:23:46.106Z,30.40
2018-04-29T14:26:14.157Z,30.40
2018-04-29T14:28:42.250Z,29.80
2018-04-29T14:31:10.337Z,30.30
2018-04-29T14:33:38.406Z,30.30
2018-04-29T14:36:06.484Z,29.90
2018-04-29T14:38:35.349Z,30.20
2018-04-29T14:41:03.417Z,30.20
2018-04-29T14:43:31.532Z,30.30
2018-04-29T14:45:59.599Z,30.50
2018-04-29T14:48:27.674Z,30.70
2018-04-29T14:50:55.766Z,30.10
2018-04-29T14:53:23.837Z,30.90
2018-04-29T14:55:51.966Z,31.60
2018-04-29T14:58:20.030Z,31.40
2018-04-29T15:00:48.102Z,31.80
2018-04-29T15:03:16.221Z,31.20
2018-04-29T15:05:44.295Z,31.60
2018-04-29T15:08:12.436Z,31.60
2018-04-29T15:10:41.295Z,33.50
2018-04-29T15:13:09.385Z,33.50
2018-04-29T15:15:38.432Z,33.60
2018-04-29T15:18:06.535Z,33.10
2018-04-29T15:20:34.613Z,34.00
2018-04-29T15:23:02.706Z,34.00
2018-04-29T15:25:30.761Z,32.90
2018-04-29T15:27:58.836Z,33.80
2018-04-29T15:30:26.932Z,33.60
2018-04-29T15:32:54.977Z,32.80
2018-04-29T15:35:23.060Z,31.80
2018-04-29T15:37:51.640Z,31.00
2018-04-29T15:40:19.732Z,30.00
2018-04-29T15:42:48.556Z,30.60
2018-04-29T15:45:17.439Z,30.70
2018-04-29T15:47:45.504Z,31.40
2018-04-29T15:50:13.616Z,31.70
2018-04-29T15:52:41.688Z,32.40
2018-04-29T15:55:09.768Z,32.30
2018-04-29T15:57:37.930Z,33.10
2018-04-29T16:00:06.070Z,33.90
2018-04-29T16:02:34.187Z,34.30
2018-04-29T16:05:02.363Z,34.80
2018-04-29T16:07:38.881Z,35.10
2018-04-29T16:10:06.963Z,35.20
2018-04-29T16:12:35.039Z,35.60
2018-04-29T16:15:03.112Z,35.60
2018-04-29T16:17:31.499Z,35.60
2018-04-29T16:19:59.581Z,36.10
2018-04-29T16:22:27.640Z,36.00
2018-04-29T16:24:55.715Z,36.20
2018-04-29T16:27:24.139Z,36.20
2018-04-29T16:29:52.246Z,36.30
2018-04-29T16:32:20.321Z,36.40
2018-04-29T16:34:48.409Z,36.00
2018-04-29T16:37:16.495Z,36.30
2018-04-29T16:39:44.576Z,36.20
2018-04-29T16:42:12.648Z,36.40
2018-04-29T16:44:40.721Z,36.10
2018-04-29T16:47:09.015Z,37.10
2018-04-29T16:49:37.921Z,36.40
2018-04-29T16:52:06.008Z,36.40
2018-04-29T16:54:34.099Z,36.80
2018-04-29T16:57:02.244Z,37.40
2018-04-29T16:59:30.324Z,37.70
2018-04-29T17:01:58.449Z,37.60
2018-04-29T17:04:26.604Z,37.70
2018-04-29T17:06:54.687Z,38.10
2018-04-29T17:09:22.826Z,38.20
2018-04-29T17:11:50.849Z,38.00
2018-04-29T17:14:18.936Z,38.50
2018-04-29T17:16:47.061Z,39.00
2018-04-29T17:19:15.153Z,39.00
2018-04-29T17:21:44.095Z,39.60
2018-04-29T17:24:13.003Z,40.40
2018-04-29T17:26:46.933Z,40.00
2018-04-29T17:29:15.439Z,40.30
2018-04-29T17:31:44.244Z,41.10
2018-04-29T17:34:12.324Z,41.00
2018-04-29T17:36:40.386Z,41.20
2018-04-29T17:39:08.462Z,41.30
2018-04-29T17:41:36.504Z,41.60
2018-04-29T17:44:04.594Z,42.00
2018-04-29T17:46:32.641Z,42.40
2018-04-29T17:49:01.468Z,42.80
2018-04-29T17:51:29.529Z,42.80
2018-04-29T17:53:57.576Z,43.20
2018-04-29T17:56:26.416Z,43.80
2018-04-29T17:58:54.471Z,43.80
2018-04-29T18:01:22.629Z,44.10
2018-04-29T18:03:50.764Z,44.20
2018-04-29T18:06:19.099Z,44.60
2018-04-29T18:08:47.882Z,45.00
2018-04-29T18:11:15.940Z,45.00
2018-04-29T18:13:44.000Z,45.20
2018-04-29T18:16:12.826Z,45.60
2018-04-29T18:18:40.881Z,45.60
2018-04-29T18:21:09.062Z,45.90
2018-04-29T18:23:37.097Z,46.10
2018-04-29T18:26:05.943Z,46.20
2018-04-29T18:28:33.988Z,46.20
2018-04-29T18:31:02.812Z,46.70
2018-04-29T18:33:30.884Z,46.70
2018-04-29T18:35:58.953Z,47.30
2018-04-29T18:38:27.000Z,47.80
2018-04-29T18:40:55.167Z,47.90
2018-04-29T18:43:23.197Z,48.30
2018-04-29T18:45:52.025Z,47.60
2018-04-29T18:48:21.084Z,47.60
2018-04-29T18:50:50.074Z,47.50
2018-04-29T18:53:17.975Z,47.50
2018-04-29T18:55:46.033Z,47.60
2018-04-29T18:58:14.098Z,47.80
2018-04-29T19:00:42.155Z,47.80
2018-04-29T19:03:10.991Z,47.10
2018-04-29T19:05:46.758Z,47.10
2018-04-29T19:08:14.803Z,47.30
2018-04-29T19:10:42.868Z,47.20
2018-04-29T19:13:10.936Z,47.60
2018-04-29T19:15:39.013Z,47.80
2018-04-29T19:18:13.830Z,47.40
2018-04-29T19:20:41.918Z,47.30
2018-04-29T19:23:10.011Z,47.20
2018-04-29T19:25:38.569Z,44.60
2018-04-29T19:28:06.615Z,43.20
2018-04-29T19:30:34.684Z,42.40
2018-04-29T19:33:03.514Z,42.00
2018-04-29T19:35:31.579Z,42.00
2018-04-29T19:37:59.652Z,42.20
2018-04-29T19:40:27.709Z,41.90
2018-04-29T19:42:55.783Z,41.90
2018-04-29T19:45:23.914Z,41.30
2018-04-29T19:47:52.053Z,41.20
2018-04-29T19:50:20.113Z,41.10
2018-04-29T19:52:48.195Z,41.40
2018-04-29T19:55:16.244Z,41.40
2018-04-29T19:57:46.228Z,41.50
2018-04-29T20:00:15.053Z,40.30
2018-04-29T20:02:43.145Z,40.30
2018-04-29T20:05:11.196Z,40.10
2018-04-29T20:07:39.272Z,40.60
2018-04-29T20:10:07.337Z,40.70
2018-04-29T20:12:35.419Z,40.30
2018-04-29T20:15:03.495Z,40.20
2018-04-29T20:17:31.571Z,39.80
2018-04-29T20:19:59.632Z,39.40
2018-04-29T20:22:27.724Z,39.80
2018-04-29T20:24:55.788Z,39.30
2018-04-29T20:27:23.894Z,39.70
2018-04-29T20:29:56.012Z,38.70
2018-04-29T20:32:33.498Z,38.70
2018-04-29T20:35:01.572Z,38.80
2018-04-29T20:37:30.401Z,38.20
2018-04-29T20:39:58.496Z,38.20
2018-04-29T20:42:26.548Z,38.20
2018-04-29T20:44:54.684Z,38.20
2018-04-29T20:47:22.761Z,38.20
2018-04-29T20:49:50.867Z,38.70
2018-04-29T20:52:18.926Z,38.50
2018-04-29T20:54:46.981Z,38.70
2018-04-29T20:57:15.056Z,38.70
2018-04-29T20:59:43.134Z,38.80
2018-04-29T21:02:11.445Z,38.90
2018-04-29T21:04:39.528Z,38.60
2018-04-29T21:07:08.979Z,39.20
2018-04-29T21:09:37.139Z,38.80
2018-04-29T21:12:05.464Z,39.10
2018-04-29T21:14:35.554Z,39.30
2018-04-29T21:17:03.613Z,39.30
2018-04-29T21:19:31.733Z,39.60
2018-04-29T21:21:59.784Z,40.00
2018-04-29T21:24:29.506Z,40.10
2018-04-29T21:26:57.829Z,40.60
2018-04-29T21:29:25.980Z,40.80
2018-04-29T21:31:54.063Z,41.20
2018-04-29T21:34:22.133Z,41.70
2018-04-29T21:36:50.216Z,42.10
2018-04-29T21:39:18.274Z,41.90
2018-04-29T21:41:46.348Z,42.00
2018-04-29T21:44:14.418Z,42.50
2018-04-29T21:46:42.512Z,42.90
2018-04-29T21:49:10.588Z,42.60
2018-04-29T21:51:38.656Z,42.30
2018-04-29T21:54:06.711Z,42.20
2018-04-29T21:56:34.783Z,42.50
2018-04-29T21:59:02.837Z,42.20
2018-04-29T22:01:30.892Z,42.20
2018-04-29T22:03:58.965Z,42.10
2018-04-29T22:06:27.134Z,42.30
2018-04-29T22:08:55.956Z,42.80
2018-04-29T22:11:24.027Z,42.80
2018-04-29T22:13:52.096Z,43.00
2018-04-29T22:16:20.166Z,43.00
2018-04-29T22:18:48.227Z,43.10
2018-04-29T22:21:17.063Z,43.40
2018-04-29T22:23:45.134Z,43.40
2018-04-29T22:26:13.194Z,43.60
2018-04-29T22:28:41.263Z,43.70
2018-04-29T22:31:09.344Z,43.80
2018-04-29T22:33:37.402Z,43.70
2018-04-29T22:36:05.464Z,43.30
2018-04-29T22:38:33.520Z,43.10
2018-04-29T22:41:02.353Z,41.80
2018-04-29T22:43:30.408Z,41.80
2018-04-29T22:45:58.481Z,41.00
2018-04-29T22:48:26.821Z,40.60
2018-04-29T22:50:54.877Z,41.20
2018-04-29T22:53:22.952Z,41.40
2018-04-29T22:55:52.961Z,41.20
2018-04-29T22:58:21.032Z,41.60
2018-04-29T23:00:49.103Z,41.50
2018-04-29T23:03:17.152Z,41.80
2018-04-29T23:05:45.980Z,42.10
2018-04-29T23:08:14.051Z,42.10
2018-04-29T23:10:42.232Z,42.50
2018-04-29T23:13:10.294Z,42.50
2018-04-29T23:15:38.355Z,42.50
2018-04-29T23:18:06.439Z,42.70
2018-04-29T23:20:34.491Z,42.90
2018-04-29T23:23:02.551Z,43.40
2018-04-29T23:25:31.384Z,43.80
2018-04-29T23:27:59.453Z,43.80
2018-04-29T23:30:27.516Z,43.90
2018-04-29T23:32:55.583Z,43.70
2018-04-29T23:35:23.665Z,43.40
2018-04-29T23:37:51.700Z,43.30
2018-04-29T23:40:19.765Z,43.50
2018-04-29T23:42:47.815Z,43.80
2018-04-29T23:45:15.880Z,45.20
2018-04-29T23:47:44.044Z,50.50
2018-04-29T23:50:11.996Z,51.90
2018-04-29T23:52:40.039Z,53.70
2018-04-29T23:55:08.096Z,55.10
2018-04-29T23:57:36.164Z,56.30
